createdAt,value
2022-09-18T00:01:42.669Z,64.00
2022-09-18T00:04:14.070Z,63.50
2022-09-18T00:06:45.753Z,63.50
2022-09-18T00:09:16.473Z,64.00
2022-09-18T00:11:47.228Z,63.30
2022-09-18T00:14:18.855Z,63.00
2022-09-18T00:16:48.019Z,62.80
2022-09-18T00:19:17.865Z,63.40
2022-09-18T00:21:50.078Z,63.60
2022-09-18T00:24:19.415Z,63.10
2022-09-18T00:26:48.924Z,63.10
2022-09-18T00:29:18.699Z,63.60
2022-09-18T00:31:47.958Z,62.70
2022-09-18T00:34:17.319Z,62.90
2022-09-18T00:36:46.162Z,63.80
2022-09-18T00:39:16.750Z,63.60
2022-09-18T00:41:46.071Z,63.80
2022-09-18T00:44:35.350Z,63.40
2022-09-18T00:47:15.880Z,63.50
2022-09-18T00:49:48.732Z,63.10
2022-09-18T00:52:20.259Z,63.00
2022-09-18T00:54:53.813Z,64.10
2022-09-18T00:57:28.506Z,63.50
2022-09-18T00:59:58.462Z,64.70
2022-09-18T01:02:27.760Z,65.00
2022-09-18T01:04:57.614Z,63.90
2022-09-18T01:07:39.154Z,64.50
2022-09-18T01:10:25.559Z,64.30
2022-09-18T01:12:57.358Z,63.90
2022-09-18T01:15:34.922Z,63.60
2022-09-18T01:18:11.730Z,63.50
2022-09-18T01:21:03.398Z,63.30
2022-09-18T01:24:20.463Z,63.00
2022-09-18T01:26:56.636Z,63.00
2022-09-18T01:29:36.677Z,63.00
2022-09-18T01:32:09.558Z,63.10
2022-09-18T01:34:45.030Z,63.30
2022-09-18T01:37:21.215Z,63.90
2022-09-18T01:39:55.926Z,63.60
2022-09-18T01:42:29.283Z,63.40
2022-09-18T01:45:03.398Z,64.80
2022-09-18T01:47:39.192Z,64.70
2022-09-18T01:50:10.191Z,63.90
2022-09-18T01:52:44.030Z,64.70
2022-09-18T01:55:20.537Z,64.40
2022-09-18T01:57:54.351Z,64.10
2022-09-18T02:00:25.096Z,63.80
2022-09-18T02:02:57.407Z,63.80
2022-09-18T02:05:32.562Z,64.00
2022-09-18T02:08:10.735Z,64.70
2022-09-18T02:10:43.782Z,63.90
2022-09-18T02:13:18.918Z,64.20
2022-09-18T02:15:50.449Z,64.10
2022-09-18T02:18:28.231Z,64.60
2022-09-18T02:21:01.869Z,64.20
2022-09-18T02:23:33.877Z,63.80
2022-09-18T02:26:07.125Z,64.10
2022-09-18T02:28:39.788Z,64.00
2022-09-18T02:31:12.743Z,64.30
2022-09-18T02:33:41.934Z,63.90
2022-09-18T02:36:52.522Z,63.70
2022-09-18T02:39:34.071Z,63.80
2022-09-18T02:42:10.933Z,63.80
2022-09-18T02:44:46.396Z,64.00
2022-09-18T02:47:30.143Z,65.60
2022-09-18T02:50:15.270Z,65.10
2022-09-18T02:52:52.215Z,64.60
2022-09-18T02:55:27.046Z,63.90
2022-09-18T02:58:01.749Z,63.90
2022-09-18T03:00:35.357Z,64.40
2022-09-18T03:03:15.183Z,64.50
2022-09-18T03:05:50.745Z,65.20
2022-09-18T03:08:19.703Z,65.00
2022-09-18T03:10:48.761Z,65.80
2022-09-18T03:13:17.978Z,65.00
2022-09-18T03:15:49.469Z,64.90
2022-09-18T03:18:19.988Z,64.30
2022-09-18T03:20:49.047Z,64.10
2022-09-18T03:23:18.442Z,64.50
2022-09-18T03:25:50.383Z,64.00
2022-09-18T03:28:19.585Z,63.70
2022-09-18T03:30:49.894Z,63.50
2022-09-18T03:33:20.191Z,63.80
2022-09-18T03:35:49.318Z,63.90
2022-09-18T03:38:18.095Z,63.60
2022-09-18T03:40:47.930Z,63.90
2022-09-18T03:43:18.019Z,63.70
2022-09-18T03:45:46.881Z,64.40
2022-09-18T03:48:17.394Z,64.40
2022-09-18T03:50:49.087Z,64.50
2022-09-18T03:53:18.056Z,64.20
2022-09-18T03:55:54.023Z,65.90
2022-09-18T03:58:42.296Z,65.90
2022-09-18T04:01:37.434Z,64.80
2022-09-18T04:04:25.211Z,64.60
2022-09-18T04:07:30.094Z,64.80
2022-09-18T04:10:37.397Z,65.10
2022-09-18T04:13:06.975Z,64.50
2022-09-18T04:15:37.777Z,64.40
2022-09-18T04:18:06.722Z,65.70
2022-09-18T04:20:35.525Z,65.40
2022-09-18T04:23:07.606Z,65.70
2022-09-18T04:25:38.403Z,66.10
2022-09-18T04:28:07.227Z,65.20
2022-09-18T04:30:40.875Z,65.40
2022-09-18T04:33:09.714Z,65.20
2022-09-18T04:35:38.479Z,64.90
2022-09-18T04:38:11.697Z,65.00
2022-09-18T04:40:41.008Z,64.70
2022-09-18T04:43:11.624Z,64.70
2022-09-18T04:45:45.321Z,64.60
2022-09-18T04:48:16.295Z,65.10
2022-09-18T04:50:46.959Z,64.70
2022-09-18T04:53:20.275Z,65.50
2022-09-18T04:55:49.554Z,65.00
2022-09-18T04:58:20.981Z,65.00
2022-09-18T05:00:55.316Z,66.30
2022-09-18T05:03:24.579Z,65.60
2022-09-18T05:05:55.086Z,65.40
2022-09-18T05:08:25.374Z,65.00
2022-09-18T05:10:54.267Z,65.00
2022-09-18T05:13:23.939Z,64.80
2022-09-18T05:16:04.406Z,65.10
2022-09-18T05:18:33.635Z,64.80
2022-09-18T05:21:05.310Z,64.70
2022-09-18T05:23:36.511Z,65.40
2022-09-18T05:26:06.836Z,64.80
2022-09-18T05:28:35.706Z,65.40
2022-09-18T05:31:05.622Z,66.00
2022-09-18T05:33:41.642Z,65.60
2022-09-18T05:36:10.575Z,65.80
2022-09-18T05:38:40.881Z,65.30
2022-09-18T05:41:11.019Z,65.20
2022-09-18T05:43:39.974Z,65.00
2022-09-18T05:46:12.231Z,65.30
2022-09-18T05:48:57.592Z,66.40
2022-09-18T05:51:26.577Z,65.70
2022-09-18T05:53:56.679Z,65.40
2022-09-18T05:56:38.363Z,65.40
2022-09-18T05:59:07.391Z,65.50
2022-09-18T06:01:36.657Z,65.00
2022-09-18T06:04:19.379Z,64.90
2022-09-18T06:06:54.720Z,65.60
2022-09-18T06:09:24.991Z,65.50
2022-09-18T06:11:54.038Z,65.00
2022-09-18T06:14:24.266Z,64.60
2022-09-18T06:16:53.750Z,65.20
2022-09-18T06:19:22.768Z,65.20
2022-09-18T06:21:52.217Z,65.10
2022-09-18T06:24:24.406Z,64.90
2022-09-18T06:27:02.538Z,64.40
2022-09-18T06:29:31.424Z,64.30
2022-09-18T06:32:07.308Z,64.40
2022-09-18T06:34:38.712Z,64.90
2022-09-18T06:37:10.604Z,65.20
2022-09-18T06:39:59.169Z,64.90
2022-09-18T06:42:45.288Z,64.30
2022-09-18T06:45:30.922Z,65.20
2022-09-18T06:48:03.978Z,64.80
2022-09-18T06:50:34.935Z,64.50
2022-09-18T06:53:08.740Z,64.40
2022-09-18T06:55:45.092Z,64.00
2022-09-18T06:58:13.776Z,64.10
2022-09-18T07:00:43.176Z,64.70
2022-09-18T07:03:12.280Z,64.60
2022-09-18T07:06:00.096Z,64.40
2022-09-18T07:08:39.867Z,64.20
2022-09-18T07:11:22.604Z,64.10
2022-09-18T07:13:53.143Z,64.30
2022-09-18T07:16:22.708Z,64.40
2022-09-18T07:18:51.569Z,64.70
2022-09-18T07:21:22.195Z,64.50
2022-09-18T07:23:50.991Z,64.10
2022-09-18T07:26:20.276Z,63.40
2022-09-18T07:28:52.870Z,62.70
2022-09-18T07:31:27.269Z,62.80
2022-09-18T07:33:58.342Z,63.00
2022-09-18T07:36:30.142Z,61.70
2022-09-18T07:38:59.282Z,61.10
2022-09-18T07:41:35.581Z,60.70
2022-09-18T07:44:06.130Z,60.70
2022-09-18T07:46:37.660Z,59.50
2022-09-18T07:49:09.214Z,59.90
2022-09-18T07:51:38.928Z,59.80
2022-09-18T07:54:07.641Z,59.70
2022-09-18T07:56:50.645Z,59.60
2022-09-18T07:59:24.322Z,59.60
2022-09-18T08:01:59.419Z,60.30
2022-09-18T08:04:31.138Z,60.40
2022-09-18T08:07:25.903Z,60.30
2022-09-18T08:10:28.983Z,59.90
2022-09-18T08:13:12.319Z,60.00
2022-09-18T08:16:04.487Z,60.30
2022-09-18T08:18:51.879Z,60.20
2022-09-18T08:21:33.823Z,60.30
2022-09-18T08:24:05.170Z,60.40
2022-09-18T08:26:35.890Z,60.70
2022-09-18T08:29:05.114Z,61.30
2022-09-18T08:31:35.714Z,61.20
2022-09-18T08:34:07.510Z,61.50
2022-09-18T08:36:36.925Z,61.60
2022-09-18T08:39:14.942Z,61.90
2022-09-18T08:42:25.306Z,61.60
2022-09-18T08:45:00.599Z,62.40
2022-09-18T08:47:37.947Z,62.20
2022-09-18T08:50:16.453Z,62.30
2022-09-18T08:52:50.035Z,63.30
2022-09-18T08:55:33.299Z,63.30
2022-09-18T08:58:15.742Z,63.60
2022-09-18T09:00:51.800Z,64.10
2022-09-18T09:03:32.041Z,64.40
2022-09-18T09:06:03.366Z,65.00
2022-09-18T09:08:55.864Z,65.10
2022-09-18T09:11:34.743Z,64.80
2022-09-18T09:14:45.870Z,65.00
2022-09-18T09:17:22.713Z,65.50
2022-09-18T09:19:55.427Z,65.20
2022-09-18T09:22:36.608Z,65.30
2022-09-18T09:25:19.074Z,65.60
2022-09-18T09:28:16.979Z,65.90
2022-09-18T09:31:08.091Z,65.50
2022-09-18T09:34:04.022Z,65.70
2022-09-18T09:36:56.604Z,66.10
2022-09-18T09:39:30.136Z,66.10
2022-09-18T09:42:03.170Z,66.60
2022-09-18T09:44:38.313Z,66.20
2022-09-18T09:47:24.051Z,67.30
2022-09-18T09:50:16.408Z,66.70
2022-09-18T09:52:48.277Z,66.80
2022-09-18T09:55:25.631Z,66.50
2022-09-18T09:58:07.510Z,66.30
2022-09-18T10:00:42.434Z,66.40
2022-09-18T10:03:34.593Z,66.50
2022-09-18T10:06:16.247Z,66.50
2022-09-18T10:08:52.650Z,66.50
2022-09-18T10:11:24.460Z,67.20
2022-09-18T10:14:03.378Z,67.10
2022-09-18T10:16:36.296Z,67.20
2022-09-18T10:19:13.135Z,67.60
2022-09-18T10:21:45.424Z,67.30
2022-09-18T10:24:23.142Z,67.40
2022-09-18T10:26:58.215Z,67.60
2022-09-18T10:29:27.056Z,67.40
2022-09-18T10:32:01.778Z,67.60
2022-09-18T10:34:40.243Z,68.00
2022-09-18T10:37:19.190Z,67.70
2022-09-18T10:39:52.670Z,67.70
2022-09-18T10:42:24.194Z,68.10
2022-09-18T10:45:01.925Z,68.10
2022-09-18T10:47:36.347Z,68.20
2022-09-18T10:50:19.126Z,68.50
2022-09-18T10:52:53.899Z,68.30
2022-09-18T10:55:31.744Z,68.30
2022-09-18T10:58:13.666Z,68.40
2022-09-18T11:00:50.196Z,68.20
2022-09-18T11:03:34.805Z,68.40
2022-09-18T11:06:05.770Z,68.30
2022-09-18T11:08:38.019Z,68.40
2022-09-18T11:11:11.522Z,68.20
2022-09-18T11:13:45.276Z,68.00
2022-09-18T11:16:24.505Z,68.00
2022-09-18T11:19:07.625Z,68.00
2022-09-18T11:21:46.083Z,68.40
2022-09-18T11:24:22.547Z,68.00
2022-09-18T11:26:54.776Z,67.70
2022-09-18T11:29:29.069Z,67.70
2022-09-18T11:32:03.535Z,67.80
2022-09-18T11:34:38.168Z,68.10
2022-09-18T11:37:13.696Z,68.40
2022-09-18T11:39:51.005Z,68.60
2022-09-18T11:42:21.553Z,69.00
2022-09-18T11:44:53.172Z,68.80
2022-09-18T11:47:33.322Z,68.60
2022-09-18T11:50:11.964Z,68.70
2022-09-18T11:52:44.460Z,69.10
2022-09-18T11:55:30.518Z,69.00
2022-09-18T11:58:04.158Z,70.30
2022-09-18T12:00:38.360Z,69.60
2022-09-18T12:03:16.768Z,69.40
2022-09-18T12:05:54.057Z,69.20
2022-09-18T12:08:43.799Z,68.90
2022-09-18T12:11:21.720Z,69.00
2022-09-18T12:14:03.907Z,69.80
2022-09-18T12:16:45.763Z,69.20
2022-09-18T12:19:23.024Z,69.00
2022-09-18T12:21:59.094Z,68.80
2022-09-18T12:24:28.817Z,70.00
2022-09-18T12:27:15.941Z,69.90
2022-09-18T12:30:10.966Z,69.10
2022-09-18T12:32:59.099Z,69.10
2022-09-18T12:35:36.759Z,69.10
2022-09-18T12:38:18.141Z,68.90
2022-09-18T12:41:11.283Z,68.60
2022-09-18T12:44:04.363Z,68.40
2022-09-18T12:46:52.737Z,68.60
2022-09-18T12:49:41.469Z,68.80
2022-09-18T12:52:27.083Z,68.50
2022-09-18T12:55:25.425Z,68.50
2022-09-18T12:58:06.244Z,69.50
2022-09-18T13:00:37.169Z,69.00
2022-09-18T13:03:16.490Z,68.50
2022-09-18T13:05:51.261Z,68.60
2022-09-18T13:08:24.269Z,68.40
2022-09-18T13:10:59.971Z,68.40
2022-09-18T13:13:38.584Z,68.40
2022-09-18T13:16:13.598Z,68.60
2022-09-18T13:18:51.149Z,68.60
2022-09-18T13:21:28.386Z,68.70
2022-09-18T13:23:59.549Z,69.10
2022-09-18T13:26:31.773Z,69.40
2022-09-18T13:29:01.071Z,69.30
2022-09-18T13:31:31.726Z,69.50
2022-09-18T13:34:04.373Z,69.60
2022-09-18T13:36:35.914Z,69.70
2022-09-18T13:39:07.731Z,69.50
2022-09-18T13:41:45.958Z,69.70
2022-09-18T13:44:20.541Z,69.90
2022-09-18T13:46:50.869Z,70.40
2022-09-18T13:49:27.183Z,70.00
2022-09-18T13:51:56.363Z,69.80
2022-09-18T13:54:29.032Z,69.70
2022-09-18T13:57:18.653Z,69.60
2022-09-18T13:59:53.360Z,69.30
2022-09-18T14:02:32.161Z,69.40
2022-09-18T14:05:33.783Z,69.50
2022-09-18T14:08:14.099Z,69.30
2022-09-18T14:11:14.062Z,69.30
2022-09-18T14:13:54.469Z,69.30
2022-09-18T14:16:43.686Z,69.60
2022-09-18T14:19:33.322Z,69.90
2022-09-18T14:22:03.751Z,69.80
2022-09-18T14:24:56.903Z,69.90
2022-09-18T14:27:39.358Z,70.00
2022-09-18T14:30:16.303Z,70.70
2022-09-18T14:33:04.394Z,70.50
2022-09-18T14:35:42.017Z,70.10
2022-09-18T14:38:27.574Z,70.00
2022-09-18T14:41:09.190Z,70.60
2022-09-18T14:43:40.467Z,70.20
2022-09-18T14:46:19.603Z,70.20
2022-09-18T14:48:49.030Z,70.40
2022-09-18T14:51:22.488Z,70.30
2022-09-18T14:53:54.286Z,70.20
2022-09-18T14:56:27.052Z,70.10
2022-09-18T14:58:59.054Z,70.00
2022-09-18T15:01:30.464Z,70.10
2022-09-18T15:04:01.865Z,70.00
2022-09-18T15:06:35.747Z,70.30
2022-09-18T15:09:08.199Z,70.20
2022-09-18T15:11:52.608Z,70.60
2022-09-18T15:14:30.209Z,70.50
2022-09-18T15:17:01.273Z,70.60
2022-09-18T15:19:31.953Z,70.60
2022-09-18T15:22:01.864Z,70.70
2022-09-18T15:24:32.173Z,70.40
2022-09-18T15:27:03.659Z,70.50
2022-09-18T15:29:41.286Z,70.60
2022-09-18T15:32:15.785Z,70.70
2022-09-18T15:34:49.764Z,70.10
2022-09-18T15:37:22.242Z,70.20
2022-09-18T15:40:02.840Z,70.20
2022-09-18T15:42:34.045Z,70.30
2022-09-18T15:45:22.674Z,70.50
2022-09-18T15:47:52.068Z,70.90
2022-09-18T15:50:41.694Z,70.40
2022-09-18T15:53:27.523Z,70.20
2022-09-18T15:56:03.439Z,70.40
2022-09-18T15:58:43.242Z,70.10
2022-09-18T16:01:21.832Z,70.10
2022-09-18T16:04:04.509Z,69.80
2022-09-18T16:06:44.480Z,70.30
2022-09-18T16:09:26.056Z,71.10
2022-09-18T16:11:56.598Z,70.10
2022-09-18T16:14:42.594Z,70.00
2022-09-18T16:17:41.562Z,69.80
2022-09-18T16:20:33.698Z,70.00
2022-09-18T16:23:21.587Z,70.00
2022-09-18T16:26:04.370Z,70.40
2022-09-18T16:28:40.632Z,70.60
2022-09-18T16:31:10.463Z,70.70
2022-09-18T16:33:50.872Z,70.20
2022-09-18T16:36:30.429Z,70.30
2022-09-18T16:39:01.438Z,70.00
2022-09-18T16:41:31.445Z,69.40
2022-09-18T16:44:04.068Z,69.30
2022-09-18T16:46:36.243Z,68.90
2022-09-18T16:49:05.642Z,68.40
2022-09-18T16:51:34.982Z,68.70
2022-09-18T16:54:04.003Z,68.80
2022-09-18T16:56:35.830Z,69.00
2022-09-18T16:59:07.306Z,69.70
2022-09-18T17:01:54.181Z,69.50
2022-09-18T17:04:28.798Z,69.70
2022-09-18T17:06:58.166Z,69.60
2022-09-18T17:09:27.233Z,70.10
2022-09-18T17:11:56.546Z,69.70
2022-09-18T17:14:27.353Z,70.20
2022-09-18T17:16:56.540Z,69.90
2022-09-18T17:19:25.674Z,71.00
2022-09-18T17:21:55.011Z,70.70
2022-09-18T17:24:27.537Z,71.30
2022-09-18T17:26:56.661Z,70.70
2022-09-18T17:29:27.547Z,70.40
2022-09-18T17:31:57.512Z,70.40
2022-09-18T17:34:26.584Z,69.90
2022-09-18T17:36:55.550Z,70.00
2022-09-18T17:39:24.435Z,70.20
2022-09-18T17:41:54.585Z,69.40
2022-09-18T17:44:24.082Z,70.30
2022-09-18T17:46:54.525Z,69.40
2022-09-18T17:49:23.420Z,69.40
2022-09-18T17:51:53.332Z,69.10
2022-09-18T17:54:22.026Z,68.80
2022-09-18T17:56:50.807Z,68.90
2022-09-18T17:59:21.453Z,69.00
2022-09-18T18:01:50.470Z,69.20
2022-09-18T18:04:20.967Z,69.00
2022-09-18T18:06:50.357Z,69.70
2022-09-18T18:09:19.431Z,70.00
2022-09-18T18:11:48.947Z,69.40
2022-09-18T18:14:17.781Z,69.40
2022-09-18T18:16:49.816Z,69.20
2022-09-18T18:19:22.694Z,69.20
2022-09-18T18:21:52.830Z,69.20
2022-09-18T18:24:21.982Z,69.20
2022-09-18T18:26:51.021Z,69.10
2022-09-18T18:29:21.431Z,69.00
2022-09-18T18:31:51.611Z,69.00
2022-09-18T18:34:25.129Z,70.50
2022-09-18T18:36:54.126Z,69.40
2022-09-18T18:39:23.304Z,69.40
2022-09-18T18:41:52.045Z,69.60
2022-09-18T18:44:20.986Z,69.60
2022-09-18T18:46:51.130Z,69.60
2022-09-18T18:49:21.658Z,71.90
2022-09-18T18:51:51.759Z,70.30
2022-09-18T18:54:22.558Z,69.90
2022-09-18T18:56:51.591Z,69.60
2022-09-18T18:59:22.862Z,69.40
2022-09-18T19:01:52.130Z,69.30
2022-09-18T19:04:22.931Z,69.20
2022-09-18T19:06:52.114Z,69.60
2022-09-18T19:09:24.285Z,69.40
2022-09-18T19:11:54.080Z,69.10
2022-09-18T19:14:25.109Z,68.90
2022-09-18T19:16:55.135Z,68.90
2022-09-18T19:19:28.416Z,68.80
2022-09-18T19:21:59.485Z,68.70
2022-09-18T19:24:30.092Z,68.70
2022-09-18T19:26:59.342Z,69.00
2022-09-18T19:29:30.044Z,69.00
2022-09-18T19:32:00.132Z,69.00
2022-09-18T19:34:30.315Z,69.10
2022-09-18T19:36:59.242Z,69.00
2022-09-18T19:39:28.218Z,68.80
2022-09-18T19:42:00.011Z,68.90
2022-09-18T19:44:34.258Z,68.60
2022-09-18T19:47:06.401Z,68.60
2022-09-18T19:49:38.729Z,68.80
2022-09-18T19:52:17.887Z,69.00
2022-09-18T19:54:47.066Z,68.90
2022-09-18T19:57:16.681Z,69.10
2022-09-18T19:59:46.896Z,69.20
2022-09-18T20:02:17.781Z,69.00
2022-09-18T20:04:48.423Z,68.80
2022-09-18T20:07:17.276Z,68.60
2022-09-18T20:09:46.223Z,68.80
2022-09-18T20:12:14.995Z,68.90
2022-09-18T20:14:43.706Z,68.70
2022-09-18T20:17:12.838Z,68.50
2022-09-18T20:19:42.093Z,68.60
2022-09-18T20:22:12.593Z,68.40
2022-09-18T20:24:41.798Z,68.30
2022-09-18T20:27:12.687Z,68.40
2022-09-18T20:29:41.422Z,68.20
2022-09-18T20:32:10.621Z,68.50
2022-09-18T20:34:39.869Z,68.40
2022-09-18T20:37:10.212Z,68.10
2022-09-18T20:39:41.217Z,68.10
2022-09-18T20:42:09.887Z,67.90
2022-09-18T20:44:38.573Z,67.90
2022-09-18T20:47:07.476Z,68.30
2022-09-18T20:49:36.671Z,68.10
2022-09-18T20:52:06.291Z,68.00
2022-09-18T20:54:34.953Z,67.80
2022-09-18T20:57:06.347Z,67.80
2022-09-18T20:59:34.998Z,67.90
2022-09-18T21:02:03.709Z,67.80
2022-09-18T21:04:34.182Z,67.80
2022-09-18T21:07:02.993Z,67.80
2022-09-18T21:09:31.749Z,67.80
2022-09-18T21:12:00.716Z,68.30
2022-09-18T21:14:31.469Z,68.30
2022-09-18T21:17:00.766Z,68.20
2022-09-18T21:19:29.754Z,68.40
2022-09-18T21:21:58.638Z,68.40
2022-09-18T21:24:27.619Z,68.40
2022-09-18T21:26:56.421Z,68.30
2022-09-18T21:29:27.040Z,68.10
2022-09-18T21:31:59.246Z,68.10
2022-09-18T21:34:31.154Z,68.10
2022-09-18T21:37:01.862Z,68.10
2022-09-18T21:39:31.905Z,67.90
2022-09-18T21:42:02.078Z,67.90
2022-09-18T21:44:31.971Z,68.00
2022-09-18T21:47:04.195Z,68.00
2022-09-18T21:49:33.718Z,68.00
2022-09-18T21:52:05.610Z,68.00
2022-09-18T21:54:35.210Z,68.30
2022-09-18T21:57:04.565Z,68.60
2022-09-18T21:59:35.677Z,68.40
2022-09-18T22:02:06.083Z,68.40
2022-09-18T22:04:34.955Z,68.40
2022-09-18T22:07:03.977Z,68.40
2022-09-18T22:09:36.514Z,68.40
2022-09-18T22:12:06.120Z,68.40
2022-09-18T22:14:38.259Z,68.40
2022-09-18T22:17:09.462Z,68.40
2022-09-18T22:19:41.484Z,68.50
2022-09-18T22:22:11.561Z,68.40
2022-09-18T22:24:40.552Z,68.40
2022-09-18T22:27:10.158Z,68.60
2022-09-18T22:29:41.155Z,68.90
2022-09-18T22:32:11.842Z,68.70
2022-09-18T22:34:41.707Z,68.90
2022-09-18T22:37:11.411Z,68.80
2022-09-18T22:39:40.042Z,68.60
2022-09-18T22:42:08.709Z,68.40
2022-09-18T22:44:37.842Z,68.50
2022-09-18T22:47:06.710Z,68.60
2022-09-18T22:49:38.234Z,68.60
2022-09-18T22:52:07.349Z,68.90
2022-09-18T22:54:36.111Z,69.00
2022-09-18T22:57:05.053Z,68.90
2022-09-18T22:59:33.731Z,68.70
2022-09-18T23:02:05.744Z,68.60
2022-09-18T23:04:36.720Z,68.60
2022-09-18T23:07:05.854Z,68.60
2022-09-18T23:09:35.116Z,68.70
2022-09-18T23:12:04.183Z,68.90
2022-09-18T23:14:33.026Z,69.00
2022-09-18T23:17:02.784Z,68.90
2022-09-18T23:19:33.749Z,69.20
2022-09-18T23:22:04.753Z,69.00
2022-09-18T23:24:33.579Z,68.90
2022-09-18T23:27:02.351Z,69.10
2022-09-18T23:29:32.001Z,69.30
2022-09-18T23:32:00.964Z,69.30
2022-09-18T23:34:31.512Z,69.30
2022-09-18T23:37:00.949Z,68.90
2022-09-18T23:39:33.576Z,68.80
2022-09-18T23:42:05.491Z,68.80
2022-09-18T23:44:34.449Z,68.90
2022-09-18T23:47:04.429Z,69.00
2022-09-18T23:49:33.507Z,68.60
2022-09-18T23:52:02.750Z,69.00
2022-09-18T23:54:33.271Z,68.60
2022-09-18T23:57:02.401Z,68.30
2022-09-18T23:59:31.827Z,68.10
